createdAt,value
2018-12-27T00:01:14.957Z,13.30
2018-12-27T00:06:10.676Z,13.20
2018-12-27T00:11:06.379Z,14.00
2018-12-27T00:16:02.441Z,14.13
2018-12-27T00:20:58.150Z,13.93
2018-12-27T00:25:53.881Z,12.97
2018-12-27T00:30:49.591Z,13.50
2018-12-27T00:35:45.327Z,13.83
2018-12-27T00:40:40.993Z,14.47
2018-12-27T00:45:36.707Z,14.13
2018-12-27T00:50:32.436Z,14.57
2018-12-27T00:55:28.163Z,13.90
2018-12-27T01:00:23.865Z,14.57
2018-12-27T01:05:19.566Z,14.17
2018-12-27T01:10:15.265Z,14.93
2018-12-27T01:15:10.988Z,14.70
2018-12-27T01:20:06.969Z,14.40
2018-12-27T01:25:02.712Z,14.93
2018-12-27T01:29:58.395Z,14.87
2018-12-27T01:34:54.234Z,15.30
2018-12-27T01:39:49.985Z,14.63
2018-12-27T01:44:45.675Z,15.47
2018-12-27T01:49:41.388Z,15.10
2018-12-27T01:54:37.113Z,15.50
2018-12-27T01:59:32.797Z,15.77
2018-12-27T02:04:28.508Z,14.93
2018-12-27T02:09:24.205Z,15.80
2018-12-27T02:14:19.941Z,15.77
2018-12-27T02:19:15.643Z,15.27
2018-12-27T02:24:11.940Z,15.60
2018-12-27T02:29:07.637Z,15.33
2018-12-27T02:34:03.375Z,15.93
2018-12-27T02:38:59.097Z,15.40
2018-12-27T02:43:54.813Z,14.90
2018-12-27T02:48:50.531Z,14.53
2018-12-27T02:53:46.231Z,14.67
2018-12-27T02:58:41.954Z,14.90
2018-12-27T03:03:43.882Z,15.80
2018-12-27T03:08:35.266Z,14.77
2018-12-27T03:13:30.987Z,15.37
2018-12-27T03:18:26.719Z,15.23
2018-12-27T03:23:22.389Z,14.87
2018-12-27T03:28:18.121Z,14.47
2018-12-27T03:33:14.159Z,15.13
2018-12-27T03:38:09.893Z,14.97
2018-12-27T03:43:05.624Z,14.03
2018-12-27T03:48:01.338Z,13.83
2018-12-27T03:52:57.043Z,14.93
2018-12-27T03:57:52.778Z,14.63
2018-12-27T04:02:48.447Z,15.00
2018-12-27T04:07:44.158Z,16.13
2018-12-27T04:12:40.139Z,14.77
2018-12-27T04:17:35.975Z,14.70
2018-12-27T04:22:31.775Z,14.50
2018-12-27T04:27:27.480Z,13.90
2018-12-27T04:32:24.000Z,14.13
2018-12-27T04:37:19.852Z,15.10
2018-12-27T04:42:15.564Z,15.20
2018-12-27T04:47:11.258Z,15.10
2018-12-27T04:52:06.981Z,15.17
2018-12-27T04:57:02.684Z,16.37
2018-12-27T05:01:58.369Z,15.43
2018-12-27T05:06:54.083Z,15.83
2018-12-27T05:11:49.809Z,14.97
2018-12-27T05:16:45.506Z,16.43
2018-12-27T05:21:41.368Z,15.90
2018-12-27T05:26:37.119Z,15.47
2018-12-27T05:31:32.822Z,15.73
2018-12-27T05:36:28.583Z,15.53
2018-12-27T05:41:24.580Z,17.33
2018-12-27T05:46:20.264Z,16.93
2018-12-27T05:51:16.251Z,16.20
2018-12-27T05:56:11.960Z,16.70
2018-12-27T06:01:07.653Z,16.23
2018-12-27T06:06:03.359Z,16.23
2018-12-27T06:10:59.127Z,16.33
2018-12-27T06:15:54.826Z,16.87
2018-12-27T06:20:50.555Z,16.63
2018-12-27T06:25:46.241Z,16.10
2018-12-27T06:30:41.986Z,16.27
2018-12-27T06:35:37.697Z,17.60
2018-12-27T06:40:33.441Z,15.77
2018-12-27T06:45:29.441Z,15.97
2018-12-27T06:50:25.155Z,15.03
2018-12-27T06:55:20.851Z,15.47
2018-12-27T07:00:16.575Z,15.43
2018-12-27T07:05:12.586Z,15.70
2018-12-27T07:10:08.317Z,15.60
2018-12-27T07:15:04.135Z,15.27
2018-12-27T07:19:59.860Z,16.13
2018-12-27T07:24:55.577Z,14.77
2018-12-27T07:29:51.301Z,16.33
2018-12-27T07:34:46.980Z,17.00
2018-12-27T07:39:43.013Z,16.60
2018-12-27T07:44:38.745Z,17.97
2018-12-27T07:49:34.445Z,16.70
2018-12-27T07:54:30.166Z,16.37
2018-12-27T07:59:26.174Z,17.50
2018-12-27T08:04:21.989Z,16.90
2018-12-27T08:09:17.671Z,16.33
2018-12-27T08:14:13.666Z,16.80
2018-12-27T08:19:09.391Z,17.67
2018-12-27T08:24:05.059Z,17.17
2018-12-27T08:29:00.776Z,17.33
2018-12-27T08:33:56.689Z,16.80
2018-12-27T08:38:52.431Z,17.17
2018-12-27T08:43:48.397Z,17.73
2018-12-27T08:48:44.122Z,15.77
2018-12-27T08:53:39.845Z,17.23
2018-12-27T08:58:35.559Z,16.17
2018-12-27T09:03:31.279Z,15.57
2018-12-27T09:08:27.690Z,15.73
2018-12-27T09:13:23.361Z,15.80
2018-12-27T09:18:19.147Z,16.50
2018-12-27T09:23:14.998Z,14.97
2018-12-27T09:28:10.701Z,14.87
2018-12-27T09:33:06.436Z,15.10
2018-12-27T09:38:02.373Z,14.17
2018-12-27T09:42:58.117Z,13.27
2018-12-27T09:47:54.163Z,15.00
2018-12-27T09:52:49.883Z,13.53
2018-12-27T09:57:45.628Z,15.20
2018-12-27T10:02:41.335Z,15.37
2018-12-27T10:07:37.072Z,14.43
2018-12-27T10:12:32.741Z,14.67
2018-12-27T10:17:28.476Z,14.50
2018-12-27T10:22:24.143Z,13.30
2018-12-27T10:27:19.857Z,14.90
2018-12-27T10:32:15.567Z,14.60
2018-12-27T10:37:11.533Z,15.40
2018-12-27T10:42:07.227Z,13.60
2018-12-27T10:47:02.956Z,13.53
2018-12-27T10:51:58.625Z,13.33
2018-12-27T10:56:54.635Z,12.83
2018-12-27T11:01:50.317Z,13.60
2018-12-27T11:06:46.034Z,13.90
2018-12-27T11:11:41.729Z,14.47
2018-12-27T11:16:37.497Z,12.23
2018-12-27T11:21:33.208Z,13.03
2018-12-27T11:26:28.923Z,12.87
2018-12-27T11:31:24.635Z,12.50
2018-12-27T11:36:20.306Z,13.33
2018-12-27T11:41:16.043Z,13.07
2018-12-27T11:46:11.779Z,12.27
2018-12-27T11:51:08.757Z,12.67
2018-12-27T11:56:04.599Z,11.93
2018-12-27T12:01:00.315Z,13.57
2018-12-27T12:06:02.949Z,12.20
2018-12-27T12:10:53.737Z,11.70
2018-12-27T12:15:49.766Z,11.47
2018-12-27T12:20:45.452Z,12.37
2018-12-27T12:25:41.291Z,12.00
2018-12-27T12:30:37.004Z,11.13
2018-12-27T12:35:33.689Z,11.30
2018-12-27T12:40:29.775Z,11.80
2018-12-27T12:45:25.487Z,11.10
2018-12-27T12:50:21.286Z,10.60
2018-12-27T12:55:17.276Z,10.90
2018-12-27T13:00:12.995Z,11.23
2018-12-27T13:05:08.694Z,10.17
2018-12-27T13:10:04.631Z,9.17
2018-12-27T13:15:00.331Z,11.30
2018-12-27T13:19:56.059Z,9.40
2018-12-27T13:24:51.744Z,10.87
2018-12-27T13:29:47.452Z,11.07
2018-12-27T13:34:43.469Z,9.70
2018-12-27T13:39:39.208Z,11.33
2018-12-27T13:44:34.925Z,10.53
2018-12-27T13:49:30.613Z,9.73
2018-12-27T13:54:26.798Z,9.20
2018-12-27T13:59:22.530Z,9.70
2018-12-27T14:04:18.221Z,9.43
2018-12-27T14:09:13.941Z,10.57
2018-12-27T14:14:09.624Z,10.50
2018-12-27T14:19:05.346Z,9.80
2018-12-27T14:24:01.072Z,9.37
2018-12-27T14:28:56.801Z,9.63
2018-12-27T14:33:52.521Z,9.47
2018-12-27T14:38:48.246Z,8.47
2018-12-27T14:43:43.988Z,9.70
2018-12-27T14:48:39.755Z,8.30
2018-12-27T14:53:35.471Z,7.93
2018-12-27T14:58:31.142Z,7.97
2018-12-27T15:03:27.193Z,7.23
2018-12-27T15:08:22.931Z,7.43
2018-12-27T15:13:18.672Z,8.43
2018-12-27T15:18:14.358Z,8.30
2018-12-27T15:23:10.192Z,8.70
2018-12-27T15:28:05.881Z,10.00
2018-12-27T15:33:01.605Z,9.40
2018-12-27T15:37:57.353Z,10.07
2018-12-27T15:42:53.161Z,8.50
2018-12-27T15:47:48.930Z,9.30
2018-12-27T15:52:44.695Z,8.70
2018-12-27T15:57:40.393Z,8.50
2018-12-27T16:02:36.166Z,7.47
2018-12-27T16:07:31.868Z,7.50
2018-12-27T16:12:27.573Z,7.87
2018-12-27T16:17:23.309Z,8.37
2018-12-27T16:22:18.989Z,7.70
2018-12-27T16:27:14.694Z,7.17
2018-12-27T16:32:10.419Z,10.03
2018-12-27T16:37:09.189Z,8.73
2018-12-27T16:42:03.808Z,7.80
2018-12-27T16:47:00.677Z,8.37
2018-12-27T16:51:57.120Z,9.10
2018-12-27T16:56:53.767Z,9.33
2018-12-27T17:01:50.233Z,9.93
2018-12-27T17:06:47.634Z,8.40
2018-12-27T17:11:43.654Z,9.13
2018-12-27T17:16:39.429Z,17.43
2018-12-27T17:21:35.623Z,9.57
2018-12-27T17:26:31.354Z,10.40
2018-12-27T17:31:27.182Z,10.17
2018-12-27T17:36:23.675Z,8.97
2018-12-27T17:41:19.619Z,9.27
2018-12-27T17:46:15.599Z,9.80
2018-12-27T17:51:11.661Z,8.83
2018-12-27T17:56:07.409Z,9.23
2018-12-27T18:01:03.583Z,8.67
2018-12-27T18:05:59.322Z,9.07
2018-12-27T18:10:55.007Z,9.87
2018-12-27T18:15:50.729Z,9.97
2018-12-27T18:20:46.453Z,10.53
2018-12-27T18:25:42.177Z,9.07
2018-12-27T18:30:37.901Z,10.63
2018-12-27T18:35:33.915Z,9.73
2018-12-27T18:40:29.681Z,10.03
2018-12-27T18:45:25.391Z,10.50
2018-12-27T18:50:21.095Z,10.00
2018-12-27T18:55:20.263Z,9.43
2018-12-27T19:00:14.459Z,10.70
2018-12-27T19:05:10.447Z,11.40
2018-12-27T19:10:26.127Z,12.63
2018-12-27T19:15:21.846Z,14.43
2018-12-27T19:20:17.542Z,11.80
2018-12-27T19:25:13.269Z,14.87
2018-12-27T19:30:08.959Z,12.43
2018-12-27T19:35:04.687Z,14.77
2018-12-27T19:40:00.403Z,11.53
2018-12-27T19:44:56.149Z,13.63
2018-12-27T19:49:51.883Z,12.57
2018-12-27T19:54:47.586Z,13.13
2018-12-27T19:59:43.327Z,12.10
2018-12-27T20:04:39.051Z,14.23
2018-12-27T20:09:34.760Z,13.27
2018-12-27T20:14:30.800Z,10.50
2018-12-27T20:19:27.344Z,11.67
2018-12-27T20:24:23.398Z,12.57
2018-12-27T20:29:19.154Z,12.50
2018-12-27T20:34:14.862Z,12.07
2018-12-27T20:44:12.344Z,13.20
2018-12-27T20:49:08.052Z,15.17
2018-12-27T20:54:03.886Z,13.93
2018-12-27T20:58:59.615Z,15.40
2018-12-27T21:03:55.350Z,16.43
2018-12-27T21:08:51.170Z,14.77
2018-12-27T21:13:46.865Z,16.83
2018-12-27T21:18:42.606Z,14.53
2018-12-27T21:23:38.511Z,13.83
2018-12-27T21:28:34.317Z,15.33
2018-12-27T21:33:30.123Z,13.90
2018-12-27T21:38:25.799Z,13.20
2018-12-27T21:43:21.542Z,14.17
2018-12-27T21:48:17.261Z,14.30
2018-12-27T21:53:13.001Z,13.23
2018-12-27T21:58:08.730Z,14.23
2018-12-27T22:03:04.453Z,14.23
2018-12-27T22:08:20.262Z,13.87
2018-12-27T22:13:35.962Z,14.47
2018-12-27T22:18:31.684Z,14.53
2018-12-27T22:23:27.937Z,15.13
2018-12-27T22:28:23.732Z,15.27
2018-12-27T22:33:19.789Z,12.87
2018-12-27T22:38:15.498Z,13.63
2018-12-27T22:43:11.550Z,15.17
2018-12-27T22:48:07.287Z,14.23
2018-12-27T22:53:02.995Z,13.23
2018-12-27T22:57:58.676Z,13.27
2018-12-27T23:02:54.425Z,15.07
2018-12-27T23:07:50.131Z,13.57
2018-12-27T23:12:45.830Z,16.07
2018-12-27T23:17:41.535Z,15.77
2018-12-27T23:22:37.251Z,15.53
2018-12-27T23:27:32.951Z,14.63
2018-12-27T23:32:28.673Z,13.87
2018-12-27T23:37:24.398Z,14.23
2018-12-27T23:42:20.110Z,13.83
2018-12-27T23:47:15.893Z,15.17
2018-12-27T23:52:11.606Z,14.73
2018-12-27T23:57:07.575Z,14.23
